Latest Coastal Weather Observations for Wynyard

IDT60701

Issued at 4:42 pm EST Thursday 29 September 2016 (issued every 10 minutes, with the page automatically refreshed every 10 minutes)

About coastal observations | Map of coastal stations | Coastal observations for TAS | Marine services | Other Formats
Station Details ID: 091107 Name: WYNYARD AIRPORT Lat: -41.00 Lon: 145.73 Height: 12.0 m
Data from the previous 72 hours. | See also: Recent months at Wynyard
Date/Time
EST
Temp
°C
Wind Pressure Rain since
9am
mm
Weather Cloud Vis
km
Sea
Height
m
Swell
Dir  Spd
kts
Gust
kts
hPa Trend Height
m
Period
s
Dir
29/04:30pm 10.7 NW 12 15 988.5 - 29.0 - Partly cloudy 9 - - - -
29/04:19pm 11.0 NW 11 15 988.2 - 28.8 - Partly cloudy 8 - - - -
29/04:16pm 11.1 NW 11 15 988.1 - 28.6 - Partly cloudy 7 - - - -
29/04:02pm 11.3 NW 6 13 987.9 - 28.0 - Partly cloudy 5 - - - -
29/04:01pm 11.4 NW 5 13 987.9 - 28.0 - Partly cloudy 5 - - - -
29/04:00pm 11.4 NW 4 13 987.9 - 28.0 - Partly cloudy 6 - - - -
29/03:30pm 11.6 NW 3 4 987.8 - 27.2 - Partly cloudy 10 - - - -
29/03:00pm 11.7 NW 4 5 987.7 - 26.4 Rain Cloudy 7 - - - -
29/02:52pm 11.3 NW 4 6 987.7 - 26.0 - Partly cloudy 6 - - - -
29/02:30pm 12.4 NNE 7 9 988.0 - 24.2 - Partly cloudy 5 - - - -
29/02:24pm 12.5 NNE 7 10 988.0 - 24.0 - Partly cloudy 6 - - - -
29/02:00pm 12.5 NE 10 14 988.1 - 22.6 - Partly cloudy 5 - - - -
29/01:56pm 12.5 NE 10 14 988.1 - 22.0 - Partly cloudy 5 - - - -
29/01:54pm 12.5 NE 11 15 988.1 - 22.0 - Partly cloudy 6 - - - -
29/01:30pm 12.7 NE 13 19 988.1 - 21.4 - Partly cloudy 5 - - - -
29/01:00pm 12.6 ENE 11 16 988.5 - 20.6 - Partly cloudy 4 - - - -
29/12:30pm 12.5 E 12 17 989.3 - 18.8 - Partly cloudy 4 - - - -
29/12:00pm 12.1 E 10 17 990.0 - 16.2 Rain Cloudy 2 - - - -
29/11:34am 12.2 ENE 11 15 990.3 - 12.6 - Partly cloudy 4 - - - -
29/11:31am 12.2 ENE 12 15 990.4 - 12.4 - Partly cloudy 4 - - - -
29/11:30am 12.3 ENE 12 16 990.4 - 12.4 - Partly cloudy 4 - - - -
29/11:00am 12.3 ENE 15 28 990.5 - 10.2 - Partly cloudy 3 - - - -
29/10:40am 12.7 ESE 5 8 990.6 - 7.0 - Partly cloudy 3 - - - -
29/10:30am 12.7 ESE 5 7 990.7 - 5.2 - Partly cloudy 5 - - - -
29/10:00am 12.4 NE 9 13 991.9 - 4.2 - Partly cloudy 5 - - - -
29/09:30am 12.9 NE 11 16 992.3 - 2.6 - Partly cloudy 4 - - - -
29/09:17am 12.9 ENE 12 16 992.4 - 1.4 - Partly cloudy 3 - - - -
29/09:00am 12.8 NE 15 21 992.4 - 10.0 Rain Cloudy 2 - - - -
29/08:53am 12.5 ENE 15 21 992.6 - 8.8 - Partly cloudy 2 - - - -
29/08:52am 12.5 ENE 14 21 992.6 - 8.2 - Partly cloudy 2 - - - -
29/08:37am 13.1 ENE 13 21 992.6 - 4.4 - Partly cloudy 4 - - - -
29/08:30am 13.1 ENE 14 27 992.6 - 3.8 - Partly cloudy 4 - - - -
29/08:25am 13.2 E 15 27 992.6 - 3.2 - Partly cloudy 5 - - - -
29/08:22am 13.2 E 14 21 992.5 - 3.2 - Partly cloudy 5 - - - -
29/08:17am 13.3 E 14 21 992.4 - 3.0 - Partly cloudy 6 - - - -
29/08:00am 13.3 E 15 22 992.5 - 3.0 - Partly cloudy 7 - - - -
29/07:30am 13.0 E 13 20 992.7 - 3.0 - Partly cloudy 7 - - - -
29/07:25am 13.0 E 14 25 992.9 - 3.0 - Partly cloudy 7 - - - -
29/07:19am 13.0 E 15 25 993.0 - 2.6 - Partly cloudy 6 - - - -
29/07:00am 12.9 E 12 20 993.7 - 2.4 - Partly cloudy 5 - - - -
29/06:48am 13.0 E 13 20 994.0 - 1.4 - Partly cloudy 5 - - - -
29/06:41am 13.0 ENE 13 21 994.2 - 1.0 - Partly cloudy 6 - - - -
29/06:35am 13.0 ENE 14 23 994.2 - 1.0 - Partly cloudy 6 - - - -
29/06:30am 13.0 E 14 23 994.3 - 0.6 - Partly cloudy 6 - - - -
29/06:21am 13.0 ENE 14 22 994.5 - 0.4 - Partly cloudy 5 - - - -
29/06:15am 13.0 E 14 21 994.5 - 0.4 - Cloudy 5 - - - -
29/06:10am 13.1 E 14 22 994.5 - 0.2 - Partly cloudy 6 - - - -
29/06:00am 13.2 E 14 25 994.3 - 0.2 - Cloudy 8 - - - -
29/05:45am 13.3 E 16 27 994.0 - 0.2 - Partly cloudy 9 - - - -
29/05:30am 13.3 E 18 29 993.8 - 0.2 - Partly cloudy 10 - - - -
29/05:00am 13.2 E 19 29 994.2 - 0.2 - Cloudy 10 - - - -
29/04:59am 13.2 E 19 29 994.2 - 0.2 - Cloudy 10 - - - -
29/04:49am 13.3 E 18 26 994.5 - 0.2 - Cloudy 10 - - - -
29/04:37am 13.1 E 19 29 993.8 - 0.2 - Partly cloudy 10 - - - -
29/04:30am 13.1 E 22 29 993.8 - 0.2 - Partly cloudy 10 - - - -
29/04:00am 13.1 E 18 29 995.2 - 0.2 - Cloudy 10 - - - -
29/03:58am 13.0 E 18 29 995.3 - 0.2 - Cloudy 10 - - - -
29/03:33am 12.9 ESE 22 33 995.5 - 0.2 - Partly cloudy 10 - - - -
29/03:30am 12.9 E 21 33 995.6 - 0.2 - Partly cloudy 10 - - - -
29/03:14am 12.8 E 17 29 996.3 - 0.2 - Partly cloudy 10 - - - -
29/03:00am 12.7 E 21 31 996.1 - 0.2 - Cloudy 10 - - - -
29/02:43am 12.6 E 22 34 996.3 - 0.2 - Partly cloudy 10 - - - -
29/02:31am 12.6 E 19 29 996.6 - 0.2 - Partly cloudy 10 - - - -
29/02:30am 12.6 E 19 28 996.7 - 0.2 - Partly cloudy 10 - - - -
29/02:12am 12.5 ESE 21 31 997.6 - 0.2 - Partly cloudy 10 - - - -
29/02:00am 12.2 E 20 32 997.8 - 0.2 - Partly cloudy 10 - - - -
29/01:47am 12.2 E 18 28 998.2 - 0.2 - Partly cloudy 10 - - - -
29/01:30am 12.1 ESE 19 28 998.9 - 0.2 - Cloudy 10 - - - -
29/01:16am 11.8 ESE 19 29 999.0 - 0.2 - Cloudy 10 - - - -
29/01:00am 11.7 ESE 19 26 999.6 - 0.2 - Partly cloudy 10 - - - -
29/12:57am 11.7 ESE 19 26 999.8 - 0.2 - Partly cloudy 10 - - - -
29/12:40am 11.7 ESE 16 23 1000.5 - 0.2 - Partly cloudy 10 - - - -
29/12:30am 11.6 ESE 16 23 1000.7 - 0.2 - Partly cloudy 10 - - - -
29/12:17am 11.5 ESE 17 24 1000.9 - 0.2 - Partly cloudy 10 - - - -
29/12:00am 11.6 E 16 22 1001.2 - 0.2 - Cloudy 10 - - - -
 
Date/Time
EST
Temp
°C
Wind Pressure Rain since
9am
mm
Weather Cloud Vis
km
Sea
Height
m
Swell
Dir  Spd
kts
Gust
kts
hPa Trend Height
m
Period
s
Dir
28/11:32pm 11.5 ESE 17 22 1001.8 - 0.2 - Partly cloudy 10 - - - -
28/11:30pm 11.5 ESE 16 22 1001.9 - 0.2 - Partly cloudy 10 - - - -
28/11:11pm 11.7 ESE 15 22 1002.1 - 0.2 - Partly cloudy 10 - - - -
28/11:00pm 11.7 ESE 15 21 1002.2 - 0.2 - Partly cloudy 10 - - - -
28/10:30pm 12.3 E 13 22 1002.7 - 0.2 - - 10 - - - -
28/10:00pm 12.0 E 13 18 1003.0 - 0.2 - Partly cloudy 10 - - - -
28/09:51pm 12.1 E 12 16 1003.3 - 0.2 - Partly cloudy 10 - - - -
28/09:30pm 12.3 E 13 21 1003.3 - 0.2 - Partly cloudy 10 - - - -
28/09:25pm 12.2 E 12 21 1003.2 - 0.2 - Partly cloudy 10 - - - -
28/09:00pm 12.2 E 11 17 1003.8 - 0.2 - Cloudy 10 - - - -
28/08:30pm 11.7 E 11 15 1004.1 - 0.2 - Partly cloudy 10 - - - -
28/08:00pm 11.6 E 10 15 1004.3 - 0.2 - Partly cloudy 10 - - - -
28/07:30pm 11.3 E 8 11 1004.8 - 0.2 - - 10 - - - -
28/07:00pm 11.3 E 6 9 1005.1 - 0.2 - - 10 - - - -
28/06:30pm 11.2 ENE 5 8 1005.0 - 0.2 - - 10 - - - -
28/06:00pm 11.6 ENE 5 9 1004.9 - 0.2 - Mostly clear 10 - - - -
28/05:30pm 11.8 ENE 8 11 1004.6 - 0.2 - Partly cloudy 10 - - - -
28/05:00pm 12.2 ENE 7 10 1004.8 - 0.2 - Partly cloudy 10 - - - -
28/04:30pm 12.8 NE 8 11 1005.2 - 0.2 - - 10 - - - -
28/04:00pm 13.1 NE 8 11 1005.4 - 0.2 - - 10 - - - -
28/03:30pm 13.0 ENE 8 11 1005.0 - 0.2 - - 10 - - - -
28/03:00pm 13.3 NE 8 11 1005.3 - 0.2 - - 10 - - - -
28/02:30pm 13.8 NNE 9 12 1006.1 - 0.2 - - 10 - - - -
28/02:00pm 13.6 NNE 8 11 1007.0 - 0.2 - - 10 - - - -
28/01:30pm 13.9 NNE 9 13 1007.6 - 0.2 - - 10 - - - -
28/01:00pm 13.9 NNE 9 13 1008.0 - 0.2 - - 10 - - - -
28/12:30pm 14.1 NNE 8 12 1008.5 - 0.2 - - 10 - - - -
28/12:00pm 13.4 NNE 9 11 1008.8 - 0.2 Recent precip. - 10 - - - -
28/11:30am 13.4 NE 9 12 1009.1 - 0.2 - - 10 - - - -
28/11:00am 13.1 NNE 9 11 1009.5 - 0.0 - - 10 - - - -
28/10:30am 13.1 NNE 8 10 1009.7 - 0.0 - - 10 - - - -
28/10:00am 12.9 NNE 6 8 1010.0 - 0.0 - Partly cloudy 10 - - - -
28/09:30am 12.2 NNE 6 7 1010.2 - 0.0 - Partly cloudy 10 - - - -
28/09:00am 12.7 E 3 6 1010.3 - 0.2 - - 10 - - - -
28/08:30am 11.5 ESE 1 5 1010.3 - 0.2 - Partly cloudy 10 - - - -
28/08:00am 10.0 S 1 4 1010.6 - 0.2 - Partly cloudy 10 - - - -
28/07:30am 9.2 SW 3 4 1010.7 - 0.2 - Partly cloudy 10 - - - -
28/07:00am 8.6 CALM 0 0 1010.5 - 0.2 - Partly cloudy 10 - - - -
28/06:30am 8.2 SSE 1 3 1010.4 - 0.2 - Partly cloudy 10 - - - -
28/06:00am 7.7 W 3 4 1010.1 - 0.2 - Mostly cloudy 10 - - - -
28/05:30am 8.2 WSW 5 6 1009.9 - 0.2 - Partly cloudy 10 - - - -
28/05:00am 8.8 WNW 5 5 1009.8 - 0.2 - Partly cloudy 10 - - - -
28/04:30am 7.6 SW 4 4 1009.6 - 0.2 - Cloudy 10 - - - -
28/04:00am 8.1 S 3 4 1009.3 - 0.2 - Partly cloudy 10 - - - -
28/03:30am 8.7 WSW 4 5 1009.4 - 0.2 - Cloudy 10 - - - -
28/03:00am 8.8 WSW 5 6 1009.5 - 0.2 - Cloudy 10 - - - -
28/02:30am 9.1 W 3 5 1009.3 - 0.2 - Partly cloudy 10 - - - -
28/02:00am 9.4 WNW 4 4 1009.3 - 0.2 - Partly cloudy 10 - - - -
28/01:36am 9.7 WSW 4 6 1009.6 - 0.2 - Partly cloudy 10 - - - -
28/01:30am 9.6 WNW 3 5 1009.5 - 0.2 - Partly cloudy 7 - - - -
28/01:26am 9.6 W 4 6 1009.6 - 0.2 - Partly cloudy 5 - - - -
28/01:20am 9.7 WSW 5 7 1009.6 - 0.2 - Partly cloudy 8 - - - -
28/01:00am 9.5 WSW 5 6 1009.6 - 0.2 - Partly cloudy 10 - - - -
28/12:30am 9.1 WSW 5 5 1009.8 - 0.2 - Partly cloudy 10 - - - -
28/12:00am 9.1 W 4 4 1009.8 - 0.2 Recent precip. Cloudy 6 - - - -
 
Date/Time
EST
Temp
°C
Wind Pressure Rain since
9am
mm
Weather Cloud Vis
km
Sea
Height
m
Swell
Dir  Spd
kts
Gust
kts
hPa Trend Height
m
Period
s
Dir
27/11:50pm 9.1 W 4 5 1009.8 - 0.2 - Partly cloudy 10 - - - -
27/11:30pm 9.1 W 4 6 1009.9 - 0.0 - Partly cloudy 4 - - - -
27/11:25pm 9.1 W 4 6 1009.9 - 0.0 - Partly cloudy 5 - - - -
27/11:00pm 8.7 WSW 2 5 1009.8 - 0.0 - Partly cloudy 10 - - - -
27/10:30pm 8.6 WSW 4 6 1009.9 - 0.0 - Partly cloudy 10 - - - -
27/10:00pm 8.1 W 4 5 1010.0 - 0.0 - Partly cloudy 10 - - - -
27/09:30pm 7.6 W 5 6 1010.2 - 0.0 - - 10 - - - -
27/09:00pm 9.0 WNW 4 5 1010.1 - 0.0 - - 10 - - - -
27/08:30pm 8.9 W 6 7 1010.2 - 0.0 - - 10 - - - -
27/08:00pm 9.2 W 8 9 1010.1 - 0.0 - - 10 - - - -
27/07:30pm 9.7 W 8 10 1010.0 - 0.0 - - 10 - - - -
27/07:00pm 10.7 WSW 11 14 1009.6 - 0.0 - - 10 - - - -
27/06:30pm 11.9 W 13 17 1009.1 - 0.0 - Partly cloudy 10 - - - -
27/06:00pm 12.5 WSW 6 8 1008.9 - 0.0 - Partly cloudy 10 - - - -
27/05:30pm 13.1 W 5 7 1008.7 - 0.0 - Partly cloudy 10 - - - -
27/05:00pm 13.1 NW 11 16 1008.5 - 0.0 - Cloudy 10 - - - -
27/04:30pm 13.4 NW 13 17 1008.2 - 0.0 - Partly cloudy 10 - - - -
27/04:00pm 13.1 NW 11 15 1008.2 - 0.0 - Partly cloudy 10 - - - -
27/03:30pm 14.3 NW 12 16 1008.2 - 0.0 - Partly cloudy 10 - - - -
27/03:00pm 14.3 NNW 10 15 1008.2 - 0.0 - Cloudy 10 - - - -
27/02:30pm 14.6 NNW 10 13 1008.3 - 0.0 - Partly cloudy 10 - - - -
27/02:00pm 14.9 NNW 11 15 1008.4 - 0.0 - Partly cloudy 10 - - - -
27/01:30pm 14.5 N 9 11 1008.4 - 0.0 - Partly cloudy 10 - - - -
27/01:00pm 13.2 NNE 10 12 1008.8 - 0.0 - Partly cloudy 10 - - - -
27/12:30pm 14.0 NNE 9 12 1008.8 - 0.0 - - 10 - - - -
27/12:00pm 13.3 NNE 10 12 1008.8 - 0.0 - - 10 - - - -
27/11:30am 13.3 NNE 9 12 1008.8 - 0.0 - - 10 - - - -
27/11:00am 13.5 NE 9 11 1008.9 - 0.0 - - 10 - - - -
27/10:30am 12.8 NE 7 9 1008.9 - 0.0 - - 10 - - - -
27/10:00am 12.6 NE 8 9 1008.8 - 0.0 - - 10 - - - -
27/09:30am 12.5 NE 7 8 1009.0 - 0.0 - - 10 - - - -
27/09:00am 12.7 ENE 3 7 1008.8 - 0.2 - - 10 - - - -
27/08:30am 10.8 W 3 4 1008.8 - 0.2 - - 10 - - - -
27/08:00am 9.8 CALM 0 3 1008.6 - 0.2 - - 10 - - - -
27/07:30am 7.9 WNW 5 6 1008.5 - 0.2 - - 10 - - - -
27/07:00am 6.5 WNW 5 6 1008.3 - 0.2 - - 10 - - - -
27/06:30am 5.0 WNW 6 7 1008.1 - 0.2 - - 10 - - - -
27/06:00am 4.0 WNW 5 6 1007.7 - 0.2 - - 10 - - - -
27/05:30am 5.1 WNW 5 6 1007.5 - 0.2 - - 10 - - - -
27/05:00am 5.8 NW 6 7 1007.4 - 0.2 - - 10 - - - -
27/04:30am 5.0 W 5 6 1007.4 - 0.2 - Partly cloudy 10 - - - -
27/04:00am 5.5 WNW 5 6 1007.4 - 0.2 - Partly cloudy 10 - - - -
27/03:30am 5.8 W 4 5 1007.4 - 0.2 - Partly cloudy 10 - - - -
27/03:00am 6.3 WNW 5 6 1007.5 - 0.2 - Partly cloudy 10 - - - -
27/02:30am 5.9 WNW 5 7 1007.6 - 0.2 - Partly cloudy 10 - - - -
27/02:00am 6.0 NW 4 5 1007.9 - 0.2 - Partly cloudy 10 - - - -
27/01:30am 5.6 W 5 7 1008.2 - 0.2 - Partly cloudy 10 - - - -
27/01:00am 5.6 W 4 6 1008.3 - 0.2 - Partly cloudy 10 - - - -
27/12:30am 5.4 WNW 5 5 1008.5 - 0.2 - - 10 - - - -
27/12:00am 5.2 WNW 5 5 1008.8 - 0.2 - - 10 - - - -
 
Date/Time
EST
Temp
°C
Wind Pressure Rain since
9am
mm
Weather Cloud Vis
km
Sea
Height
m
Swell
Dir  Spd
kts
Gust
kts
hPa Trend Height
m
Period
s
Dir
26/11:30pm 5.6 WNW 5 6 1009.0 - 0.2 - - 10 - - - -
26/11:00pm 5.8 WSW 4 5 1009.1 - 0.2 - - 10 - - - -
26/10:30pm 6.8 WSW 5 5 1009.2 - 0.2 - - 10 - - - -
26/10:00pm 7.0 WSW 4 5 1009.4 - 0.2 - - 10 - - - -
26/09:30pm 7.6 S 4 6 1009.5 - 0.2 - - 10 - - - -
26/09:00pm 8.7 S 3 5 1009.4 - 0.2 - Mostly clear 10 - - - -
26/08:30pm 9.9 S 5 6 1009.5 - 0.2 - Partly cloudy 10 - - - -
26/08:00pm 10.0 SSW 5 7 1009.4 - 0.2 - Partly cloudy 10 - - - -
26/07:30pm 10.1 S 2 4 1009.3 - 0.2 - Partly cloudy 10 - - - -
26/07:00pm 11.2 N 3 4 1009.2 - 0.2 - Partly cloudy 10 - - - -
26/06:30pm 11.2 NNW 3 4 1009.0 - 0.2 - Partly cloudy 10 - - - -
26/06:00pm 11.3 N 5 8 1008.9 - 0.2 - Mostly clear 10 - - - -
26/05:30pm 11.9 N 7 10 1008.8 - 0.2 - Partly cloudy 10 - - - -
26/05:00pm 12.3 N 7 10 1008.8 - 0.2 - Partly cloudy 10 - - - -

Other Formats:

Comma delimited format used in spreadsheet applications
http://www.bom.gov.au/fwo/IDT60701/IDT60701.95957.axf

JavaScript Object Notation format (JSON) in row-major order
http://www.bom.gov.au/fwo/IDT60701/IDT60701.95957.json